createdAt,value
2023-02-19T00:02:02.477Z,99.58
2023-02-19T00:04:28.806Z,99.28
2023-02-19T00:06:55.143Z,99.48
2023-02-19T00:09:21.678Z,99.75
2023-02-19T00:11:48.496Z,100.00
2023-02-19T00:14:18.934Z,100.00
2023-02-19T00:16:45.874Z,100.00
2023-02-19T00:19:14.847Z,100.00
2023-02-19T00:21:41.201Z,100.00
2023-02-19T00:24:08.130Z,100.00
2023-02-19T00:26:34.853Z,100.00
2023-02-19T00:29:02.093Z,100.00
2023-02-19T00:31:34.290Z,100.00
2023-02-19T00:34:03.774Z,100.00
2023-02-19T00:36:31.706Z,100.00
2023-02-19T00:38:58.237Z,100.00
2023-02-19T00:41:25.307Z,100.00
2023-02-19T00:43:57.120Z,100.00
2023-02-19T00:46:29.677Z,100.00
2023-02-19T00:48:56.810Z,100.00
2023-02-19T00:51:25.551Z,100.00
2023-02-19T00:53:51.869Z,100.00
2023-02-19T00:56:18.810Z,100.00
2023-02-19T00:58:45.313Z,100.00
2023-02-19T01:01:12.229Z,100.00
2023-02-19T01:03:39.702Z,100.00
2023-02-19T01:06:07.822Z,100.00
2023-02-19T01:08:34.899Z,100.00
2023-02-19T01:11:03.117Z,100.00
2023-02-19T01:13:30.344Z,100.00
2023-02-19T01:16:05.113Z,100.00
2023-02-19T01:18:32.263Z,100.00
2023-02-19T01:20:59.177Z,100.00
2023-02-19T01:23:25.512Z,100.00
2023-02-19T01:25:51.869Z,99.69
2023-02-19T01:28:18.207Z,99.94
2023-02-19T01:30:44.517Z,99.88
2023-02-19T01:33:10.840Z,99.83
2023-02-19T01:35:40.469Z,100.00
2023-02-19T01:38:09.766Z,99.95
2023-02-19T01:40:36.099Z,99.95
2023-02-19T01:43:03.614Z,99.37
2023-02-19T01:45:39.039Z,99.65
2023-02-19T01:48:17.411Z,99.51
2023-02-19T01:51:12.343Z,99.57
2023-02-19T01:53:44.459Z,99.58
2023-02-19T01:56:15.808Z,99.02
2023-02-19T01:58:42.210Z,99.09
2023-02-19T02:01:09.353Z,99.28
2023-02-19T02:03:38.434Z,99.58
2023-02-19T02:06:11.227Z,99.23
2023-02-19T02:08:56.320Z,98.96
2023-02-19T02:11:23.083Z,99.46
2023-02-19T02:13:50.396Z,99.69
2023-02-19T02:16:40.681Z,99.07
2023-02-19T02:19:35.025Z,99.98
2023-02-19T02:22:28.592Z,99.65
2023-02-19T02:25:00.891Z,99.96
2023-02-19T02:28:01.788Z,100.00
2023-02-19T02:30:38.008Z,100.00
2023-02-19T02:33:07.133Z,99.92
2023-02-19T02:35:41.272Z,100.00
2023-02-19T02:38:11.547Z,100.00
2023-02-19T02:40:42.128Z,100.00
2023-02-19T02:43:08.961Z,100.00
2023-02-19T02:45:35.602Z,100.00
2023-02-19T02:48:18.222Z,100.00
2023-02-19T02:50:53.813Z,100.00
2023-02-19T02:53:44.646Z,100.00
2023-02-19T02:56:14.429Z,100.00
2023-02-19T02:58:42.193Z,100.00
2023-02-19T03:01:38.694Z,100.00
2023-02-19T03:04:11.900Z,100.00
2023-02-19T03:06:39.542Z,100.00
2023-02-19T03:09:19.721Z,100.00
2023-02-19T03:12:09.079Z,100.00
2023-02-19T03:15:05.125Z,100.00
2023-02-19T03:18:04.062Z,100.00
2023-02-19T03:20:33.305Z,100.00
2023-02-19T03:23:00.963Z,100.00
2023-02-19T03:25:50.002Z,100.00
2023-02-19T03:28:41.607Z,100.00
2023-02-19T03:31:12.369Z,100.00
2023-02-19T03:33:41.663Z,100.00
2023-02-19T03:36:12.648Z,100.00
2023-02-19T03:38:52.414Z,100.00
2023-02-19T03:41:49.695Z,100.00
2023-02-19T03:44:21.732Z,99.49
2023-02-19T03:46:55.995Z,99.39
2023-02-19T03:49:44.241Z,99.33
2023-02-19T03:52:42.845Z,99.67
2023-02-19T03:55:17.255Z,99.37
2023-02-19T03:57:52.525Z,99.70
2023-02-19T04:00:42.750Z,99.67
2023-02-19T04:03:18.311Z,99.62
2023-02-19T04:05:49.784Z,99.11
2023-02-19T04:08:19.347Z,99.05
2023-02-19T04:10:47.148Z,99.18
2023-02-19T04:13:20.435Z,98.59
2023-02-19T04:15:48.450Z,98.78
2023-02-19T04:18:18.591Z,99.21
2023-02-19T04:20:47.565Z,99.02
2023-02-19T04:23:19.155Z,99.89
2023-02-19T04:25:48.653Z,99.93
2023-02-19T04:28:16.526Z,99.79
2023-02-19T04:30:43.813Z,99.94
2023-02-19T04:33:10.362Z,99.81
2023-02-19T04:35:36.788Z,99.83
2023-02-19T04:38:03.208Z,99.55
2023-02-19T04:40:29.576Z,99.26
2023-02-19T04:42:55.882Z,99.79
2023-02-19T04:45:22.214Z,99.45
2023-02-19T04:47:48.555Z,99.78
2023-02-19T04:50:15.123Z,99.99
2023-02-19T04:52:41.477Z,99.70
2023-02-19T04:55:08.405Z,99.28
2023-02-19T04:57:35.592Z,99.24
2023-02-19T05:00:02.389Z,99.37
2023-02-19T05:02:28.704Z,99.18
2023-02-19T05:04:55.060Z,99.10
2023-02-19T05:07:21.375Z,99.52
2023-02-19T05:09:47.741Z,99.38
2023-02-19T05:12:14.079Z,98.49
2023-02-19T05:14:40.379Z,98.32
2023-02-19T05:17:06.693Z,97.97
2023-02-19T05:19:33.028Z,98.51
2023-02-19T05:21:59.430Z,99.20
2023-02-19T05:24:27.406Z,98.69
2023-02-19T05:26:53.807Z,98.92
2023-02-19T05:29:20.154Z,99.41
2023-02-19T05:31:47.186Z,99.00
2023-02-19T05:34:13.659Z,99.34
2023-02-19T05:36:40.020Z,98.90
2023-02-19T05:39:07.296Z,98.47
2023-02-19T05:41:33.733Z,98.52
2023-02-19T05:44:00.145Z,98.79
2023-02-19T05:46:29.570Z,98.56
2023-02-19T05:48:56.769Z,99.20
2023-02-19T05:51:24.911Z,98.57
2023-02-19T05:53:51.745Z,98.11
2023-02-19T05:56:38.779Z,97.54
2023-02-19T05:59:23.070Z,97.70
2023-02-19T06:01:51.129Z,97.10
2023-02-19T06:04:19.883Z,97.57
2023-02-19T06:06:47.736Z,97.23
2023-02-19T06:09:14.127Z,97.08
2023-02-19T06:11:40.503Z,97.26
2023-02-19T06:14:07.180Z,97.22
2023-02-19T06:16:34.337Z,97.30
2023-02-19T06:19:04.396Z,96.81
2023-02-19T06:21:30.863Z,96.21
2023-02-19T06:23:57.192Z,96.33
2023-02-19T06:26:25.330Z,96.60
2023-02-19T06:28:53.325Z,95.79
2023-02-19T06:31:21.400Z,96.83
2023-02-19T06:33:47.779Z,96.65
2023-02-19T06:36:16.904Z,96.68
2023-02-19T06:38:43.436Z,96.80
2023-02-19T06:41:11.097Z,97.33
2023-02-19T06:43:37.926Z,97.98
2023-02-19T06:46:06.317Z,97.84
2023-02-19T06:48:33.681Z,97.30
2023-02-19T06:51:00.182Z,97.58
2023-02-19T06:53:28.986Z,97.71
2023-02-19T06:55:57.266Z,97.84
2023-02-19T06:58:23.767Z,98.04
2023-02-19T07:00:50.311Z,97.66
2023-02-19T07:03:16.852Z,98.51
2023-02-19T07:05:43.828Z,97.77
2023-02-19T07:08:10.232Z,98.07
2023-02-19T07:10:36.578Z,97.74
2023-02-19T07:13:03.117Z,97.30
2023-02-19T07:15:29.763Z,97.59
2023-02-19T07:17:56.129Z,97.88
2023-02-19T07:20:22.469Z,97.65
2023-02-19T07:22:48.778Z,97.91
2023-02-19T07:25:15.086Z,97.58
2023-02-19T07:27:41.434Z,97.22
2023-02-19T07:30:08.380Z,97.80
2023-02-19T07:32:34.721Z,98.36
2023-02-19T07:35:01.087Z,98.61
2023-02-19T07:37:27.419Z,97.77
2023-02-19T07:39:53.762Z,97.51
2023-02-19T07:42:20.056Z,97.79
2023-02-19T07:44:46.423Z,97.12
2023-02-19T07:47:12.736Z,98.77
2023-02-19T07:49:39.043Z,98.38
2023-02-19T07:52:05.355Z,98.36
2023-02-19T07:54:31.722Z,98.41
2023-02-19T07:56:58.058Z,99.00
2023-02-19T07:59:24.380Z,98.23
2023-02-19T08:02:09.398Z,98.03
2023-02-19T08:04:35.730Z,97.87
2023-02-19T08:07:02.108Z,98.62
2023-02-19T08:09:28.431Z,97.99
2023-02-19T08:12:13.093Z,97.97
2023-02-19T08:14:39.474Z,98.33
2023-02-19T08:17:05.854Z,97.87
2023-02-19T08:19:32.232Z,97.56
2023-02-19T08:21:58.710Z,98.03
2023-02-19T08:24:25.021Z,98.11
2023-02-19T08:26:51.399Z,97.97
2023-02-19T08:29:18.006Z,97.27
2023-02-19T08:31:44.532Z,97.34
2023-02-19T08:34:10.934Z,97.67
2023-02-19T08:36:38.356Z,98.04
2023-02-19T08:39:04.685Z,96.84
2023-02-19T08:41:31.040Z,96.90
2023-02-19T08:43:57.408Z,96.93
2023-02-19T08:46:23.861Z,97.23
2023-02-19T08:48:50.188Z,96.88
2023-02-19T08:51:16.632Z,97.51
2023-02-19T08:53:43.020Z,97.35
2023-02-19T08:56:13.057Z,96.63
2023-02-19T08:58:39.611Z,96.33
2023-02-19T09:01:11.131Z,95.51
2023-02-19T09:03:37.793Z,94.84
2023-02-19T09:06:05.344Z,93.91
2023-02-19T09:08:31.695Z,93.75
2023-02-19T09:10:59.792Z,92.66
2023-02-19T09:13:26.155Z,93.34
2023-02-19T09:15:52.503Z,92.90
2023-02-19T09:18:18.910Z,93.04
2023-02-19T09:20:45.376Z,93.90
2023-02-19T09:23:11.678Z,93.14
2023-02-19T09:25:38.010Z,92.81
2023-02-19T09:28:04.501Z,91.74
2023-02-19T09:30:30.901Z,92.60
2023-02-19T09:32:57.219Z,92.43
2023-02-19T09:35:23.619Z,92.72
2023-02-19T09:37:49.918Z,93.34
2023-02-19T09:40:21.855Z,93.59
2023-02-19T09:42:51.284Z,94.03
2023-02-19T09:45:23.315Z,94.67
2023-02-19T09:47:54.046Z,94.07
2023-02-19T09:50:27.088Z,94.72
2023-02-19T09:52:58.330Z,94.84
2023-02-19T09:55:36.540Z,95.79
2023-02-19T09:58:14.440Z,96.89
2023-02-19T10:00:40.882Z,98.14
2023-02-19T10:03:15.091Z,98.12
2023-02-19T10:05:41.783Z,98.94
2023-02-19T10:08:15.445Z,98.68
2023-02-19T10:10:44.165Z,98.46
2023-02-19T10:13:22.772Z,98.37
2023-02-19T10:15:57.629Z,97.57
2023-02-19T10:18:28.253Z,97.71
2023-02-19T10:20:56.553Z,97.98
2023-02-19T10:23:24.617Z,98.03
2023-02-19T10:25:57.199Z,98.48
2023-02-19T10:28:27.934Z,96.66
2023-02-19T10:30:56.962Z,96.79
2023-02-19T10:33:23.927Z,95.50
2023-02-19T10:36:10.268Z,95.27
2023-02-19T10:38:40.300Z,94.83
2023-02-19T10:41:17.642Z,92.82
2023-02-19T10:43:55.540Z,92.14
2023-02-19T10:46:25.768Z,91.68
2023-02-19T10:48:59.203Z,91.48
2023-02-19T10:51:39.852Z,92.96
2023-02-19T10:54:20.106Z,91.99
2023-02-19T10:56:46.742Z,93.06
2023-02-19T10:59:18.929Z,93.95
2023-02-19T11:01:58.886Z,93.71
2023-02-19T11:04:36.461Z,93.36
2023-02-19T11:07:16.811Z,93.78
2023-02-19T11:09:45.818Z,94.65
2023-02-19T11:12:27.078Z,95.21
2023-02-19T11:14:53.990Z,95.68
2023-02-19T11:17:26.833Z,95.57
2023-02-19T11:19:56.661Z,95.81
2023-02-19T11:22:32.676Z,96.22
2023-02-19T11:25:09.619Z,96.60
2023-02-19T11:27:53.099Z,95.50
2023-02-19T11:30:45.002Z,96.48
2023-02-19T11:33:17.686Z,96.98
2023-02-19T11:35:45.311Z,97.81
2023-02-19T11:38:14.043Z,98.00
2023-02-19T11:40:55.640Z,96.75
2023-02-19T11:43:46.847Z,97.00
2023-02-19T11:46:26.481Z,97.11
2023-02-19T11:48:58.864Z,97.29
2023-02-19T11:51:37.576Z,97.59
2023-02-19T11:54:18.770Z,97.51
2023-02-19T11:56:50.448Z,97.58
2023-02-19T11:59:39.095Z,97.32
2023-02-19T12:02:20.012Z,97.12
2023-02-19T12:04:58.435Z,95.75
2023-02-19T12:07:43.729Z,95.59
2023-02-19T12:10:37.048Z,95.43
2023-02-19T12:13:23.515Z,96.07
2023-02-19T12:18:42.677Z,96.98
2023-02-19T12:21:32.603Z,96.97
2023-02-19T12:24:33.265Z,97.25
2023-02-19T12:27:08.747Z,97.01
2023-02-19T12:30:05.752Z,96.99
2023-02-19T12:32:41.033Z,97.30
2023-02-19T12:35:16.557Z,96.64
2023-02-19T12:38:04.863Z,96.43
2023-02-19T12:40:44.506Z,96.38
2023-02-19T12:43:19.520Z,94.65
2023-02-19T12:45:49.599Z,92.32
2023-02-19T12:48:34.192Z,91.61
2023-02-19T12:51:14.611Z,90.27
2023-02-19T12:54:02.345Z,91.87
2023-02-19T12:56:42.149Z,91.92
2023-02-19T12:59:30.750Z,91.89
2023-02-19T13:02:05.805Z,89.54
2023-02-19T13:04:32.179Z,89.21
2023-02-19T13:07:09.082Z,89.00
2023-02-19T13:09:48.188Z,88.63
2023-02-19T13:12:29.312Z,89.99
2023-02-19T13:15:05.587Z,90.13
2023-02-19T13:17:38.956Z,91.03
2023-02-19T13:20:18.411Z,90.38
2023-02-19T13:23:39.028Z,90.88
2023-02-19T13:26:42.321Z,90.54
2023-02-19T13:29:29.823Z,91.42
2023-02-19T13:32:17.615Z,92.81
2023-02-19T13:35:21.279Z,92.05
2023-02-19T13:37:48.492Z,92.35
2023-02-19T13:40:39.931Z,92.19
2023-02-19T13:43:22.918Z,91.00
2023-02-19T13:45:58.928Z,91.45
2023-02-19T13:48:30.089Z,91.63
2023-02-19T13:51:21.636Z,92.17
2023-02-19T13:53:48.128Z,91.36
2023-02-19T13:56:29.587Z,90.44
2023-02-19T13:58:57.153Z,90.80
2023-02-19T14:01:55.562Z,89.62
2023-02-19T14:04:32.512Z,90.80
2023-02-19T14:07:04.995Z,89.91
2023-02-19T14:09:34.249Z,89.74
2023-02-19T14:12:10.256Z,89.32
2023-02-19T14:14:40.089Z,88.29
2023-02-19T14:17:09.386Z,89.46
2023-02-19T14:19:41.912Z,89.15
2023-02-19T14:22:45.666Z,88.93
2023-02-19T14:25:27.390Z,86.93
2023-02-19T14:28:00.797Z,87.02
2023-02-19T14:30:27.525Z,88.25
2023-02-19T14:33:02.796Z,87.82
2023-02-19T14:35:40.354Z,87.49
2023-02-19T14:38:14.244Z,87.73
2023-02-19T14:40:42.030Z,88.52
2023-02-19T14:43:13.860Z,87.85
2023-02-19T14:45:48.456Z,86.95
2023-02-19T14:48:22.809Z,88.02
2023-02-19T14:50:54.153Z,89.41
2023-02-19T14:53:23.295Z,89.99
2023-02-19T14:55:51.356Z,90.18
2023-02-19T14:58:24.018Z,90.65
2023-02-19T15:00:50.460Z,91.28
2023-02-19T15:03:24.652Z,91.45
2023-02-19T15:06:05.837Z,92.01
2023-02-19T15:08:39.625Z,91.51
2023-02-19T15:11:11.270Z,92.52
2023-02-19T15:13:38.608Z,92.12
2023-02-19T15:16:05.522Z,92.53
2023-02-19T15:18:36.124Z,92.94
2023-02-19T15:21:05.566Z,92.90
2023-02-19T15:23:35.702Z,92.65
2023-02-19T15:26:02.368Z,93.00
2023-02-19T15:28:33.592Z,92.92
2023-02-19T15:30:59.933Z,92.40
2023-02-19T15:33:27.834Z,93.26
2023-02-19T15:36:00.711Z,92.63
2023-02-19T15:38:28.376Z,91.74
2023-02-19T15:40:57.638Z,91.43
2023-02-19T15:43:44.790Z,91.15
2023-02-19T15:46:20.187Z,91.81
2023-02-19T15:48:58.486Z,92.89
2023-02-19T15:51:32.824Z,92.48
2023-02-19T15:54:07.725Z,93.34
2023-02-19T15:56:37.693Z,93.26
2023-02-19T15:59:17.793Z,93.95
2023-02-19T16:01:44.578Z,94.16
2023-02-19T16:04:14.730Z,93.80
2023-02-19T16:06:56.025Z,94.05
2023-02-19T16:09:35.654Z,94.57
2023-02-19T16:12:04.248Z,94.19
2023-02-19T16:14:31.737Z,93.36
2023-02-19T16:17:06.424Z,92.87
2023-02-19T16:19:43.435Z,93.18
2023-02-19T16:22:17.281Z,93.06
2023-02-19T16:24:50.491Z,92.75
2023-02-19T16:27:36.351Z,92.91
2023-02-19T16:30:17.772Z,93.36
2023-02-19T16:32:46.680Z,91.77
2023-02-19T16:35:36.661Z,91.27
2023-02-19T16:38:03.177Z,91.06
2023-02-19T16:40:50.562Z,88.61
2023-02-19T16:43:31.102Z,89.57
2023-02-19T16:45:59.478Z,87.65
2023-02-19T16:48:26.025Z,86.99
2023-02-19T16:50:52.501Z,86.09
2023-02-19T16:53:25.125Z,84.34
2023-02-19T16:55:52.307Z,84.11
2023-02-19T16:58:18.992Z,84.92
2023-02-19T17:00:45.365Z,85.28
2023-02-19T17:03:15.748Z,86.28
2023-02-19T17:05:42.667Z,85.60
2023-02-19T17:08:21.113Z,85.12
2023-02-19T17:10:47.430Z,85.87
2023-02-19T17:13:13.778Z,84.20
2023-02-19T17:15:40.067Z,84.23
2023-02-19T17:18:06.412Z,83.19
2023-02-19T17:20:35.395Z,83.39
2023-02-19T17:23:01.759Z,84.93
2023-02-19T17:25:28.207Z,83.78
2023-02-19T17:27:54.562Z,83.44
2023-02-19T17:30:27.818Z,84.50
2023-02-19T17:32:54.224Z,84.50
2023-02-19T17:35:20.670Z,83.69
2023-02-19T17:37:47.158Z,84.34
2023-02-19T17:40:32.765Z,85.68
2023-02-19T17:43:00.385Z,85.55
2023-02-19T17:45:26.775Z,84.91
2023-02-19T17:47:53.183Z,85.02
2023-02-19T17:50:25.859Z,85.31
2023-02-19T17:52:52.502Z,85.68
2023-02-19T17:55:19.093Z,85.42
2023-02-19T17:57:47.026Z,85.73
2023-02-19T18:00:15.914Z,85.14
2023-02-19T18:02:42.470Z,85.82
2023-02-19T18:05:09.013Z,85.37
2023-02-19T18:07:35.887Z,85.92
2023-02-19T18:10:03.130Z,86.27
2023-02-19T18:12:29.456Z,85.76
2023-02-19T18:14:56.602Z,86.25
2023-02-19T18:17:24.633Z,85.91
2023-02-19T18:19:51.931Z,85.78
2023-02-19T18:22:18.603Z,86.10
2023-02-19T18:24:50.002Z,85.64
2023-02-19T18:27:16.873Z,85.04
2023-02-19T18:29:43.164Z,86.44
2023-02-19T18:32:09.607Z,85.96
2023-02-19T18:34:36.018Z,85.15
2023-02-19T18:37:02.413Z,85.59
2023-02-19T18:39:28.763Z,85.64
2023-02-19T18:41:55.211Z,86.29
2023-02-19T18:44:23.129Z,86.65
2023-02-19T18:46:50.131Z,86.94
2023-02-19T18:49:17.165Z,86.90
2023-02-19T18:51:44.016Z,87.71
2023-02-19T18:54:10.660Z,87.84
2023-02-19T18:56:44.279Z,86.75
2023-02-19T18:59:11.488Z,87.66
2023-02-19T19:01:38.155Z,87.34
2023-02-19T19:04:04.796Z,87.28
2023-02-19T19:06:31.646Z,86.87
2023-02-19T19:08:58.460Z,86.41
2023-02-19T19:11:25.434Z,86.01
2023-02-19T19:13:52.763Z,86.26
2023-02-19T19:16:24.121Z,86.17
2023-02-19T19:18:50.776Z,85.53
2023-02-19T19:21:17.608Z,85.79
2023-02-19T19:23:44.023Z,86.04
2023-02-19T19:26:11.186Z,85.25
2023-02-19T19:28:44.041Z,84.63
2023-02-19T19:31:12.575Z,85.19
2023-02-19T19:33:39.213Z,85.51
2023-02-19T19:36:06.392Z,84.46
2023-02-19T19:38:32.830Z,85.00
2023-02-19T19:40:59.626Z,84.11
2023-02-19T19:43:27.782Z,84.29
2023-02-19T19:45:54.566Z,84.22
2023-02-19T19:48:21.270Z,84.94
2023-02-19T19:50:47.676Z,84.29
2023-02-19T19:53:14.076Z,84.13
2023-02-19T19:55:40.404Z,84.41
2023-02-19T19:58:06.770Z,84.03
2023-02-19T20:00:33.144Z,83.38
2023-02-19T20:02:59.649Z,83.53
2023-02-19T20:05:26.088Z,84.11
2023-02-19T20:07:53.383Z,84.17
2023-02-19T20:10:19.929Z,83.62
2023-02-19T20:12:47.267Z,83.88
2023-02-19T20:15:13.877Z,83.09
2023-02-19T20:17:40.262Z,82.93
2023-02-19T20:20:07.245Z,82.65
2023-02-19T20:22:33.678Z,82.60
2023-02-19T20:25:00.132Z,82.23
2023-02-19T20:27:26.436Z,81.46
2023-02-19T20:29:52.805Z,82.54
2023-02-19T20:32:19.156Z,82.05
2023-02-19T20:34:46.066Z,82.61
2023-02-19T20:37:12.441Z,82.02
2023-02-19T20:39:39.058Z,82.81
2023-02-19T20:42:06.198Z,82.32
2023-02-19T20:44:33.369Z,82.20
2023-02-19T20:47:00.239Z,82.10
2023-02-19T20:49:29.611Z,83.03
2023-02-19T20:51:58.835Z,82.60
2023-02-19T20:54:27.837Z,83.46
2023-02-19T20:56:56.122Z,83.72
2023-02-19T20:59:24.865Z,83.14
2023-02-19T21:01:51.246Z,84.19
2023-02-19T21:04:18.851Z,83.54
2023-02-19T21:06:45.865Z,84.25
2023-02-19T21:09:12.317Z,83.83
2023-02-19T21:11:39.138Z,84.07
2023-02-19T21:14:05.508Z,84.23
2023-02-19T21:16:32.696Z,83.91
2023-02-19T21:19:00.135Z,84.34
2023-02-19T21:21:27.441Z,84.75
2023-02-19T21:23:55.387Z,84.48
2023-02-19T21:26:22.167Z,84.24
2023-02-19T21:28:51.423Z,84.92
2023-02-19T21:31:18.140Z,84.53
2023-02-19T21:33:44.520Z,84.65
2023-02-19T21:36:11.228Z,85.21
2023-02-19T21:38:37.791Z,85.65
2023-02-19T21:41:04.488Z,85.80
2023-02-19T21:43:31.090Z,85.64
2023-02-19T21:45:57.618Z,85.10
2023-02-19T21:48:24.023Z,86.01
2023-02-19T21:50:50.386Z,85.92
2023-02-19T21:53:16.837Z,85.83
2023-02-19T21:55:56.620Z,85.78
2023-02-19T21:58:24.974Z,86.06
2023-02-19T22:00:51.356Z,85.89
2023-02-19T22:03:17.777Z,85.99
2023-02-19T22:05:44.083Z,85.53
2023-02-19T22:08:10.624Z,85.71
2023-02-19T22:10:39.201Z,85.56
2023-02-19T22:13:05.500Z,85.51
2023-02-19T22:15:31.829Z,86.04
2023-02-19T22:17:58.392Z,85.90
2023-02-19T22:20:24.713Z,85.75
2023-02-19T22:22:51.011Z,86.33
2023-02-19T22:25:17.407Z,85.74
2023-02-19T22:27:43.754Z,86.11
2023-02-19T22:30:10.770Z,86.49
2023-02-19T22:32:37.270Z,86.77
2023-02-19T22:35:03.713Z,86.50
2023-02-19T22:37:30.029Z,88.39
2023-02-19T22:39:56.355Z,87.34
2023-02-19T22:42:24.085Z,87.52
2023-02-19T22:44:50.503Z,87.22
2023-02-19T22:47:19.098Z,87.35
2023-02-19T22:49:45.489Z,87.01
2023-02-19T22:52:12.562Z,87.79
2023-02-19T22:54:39.548Z,87.56
2023-02-19T22:57:06.193Z,87.42
2023-02-19T22:59:32.582Z,88.66
2023-02-19T23:01:58.912Z,88.52
2023-02-19T23:04:25.918Z,88.52
2023-02-19T23:06:52.549Z,89.27
2023-02-19T23:09:25.230Z,89.59
2023-02-19T23:11:51.982Z,90.67
2023-02-19T23:14:21.190Z,90.50
2023-02-19T23:16:47.595Z,91.05
2023-02-19T23:19:15.565Z,91.17
2023-02-19T23:21:43.937Z,91.63
2023-02-19T23:24:11.826Z,91.64
2023-02-19T23:26:46.544Z,91.83
2023-02-19T23:29:18.316Z,92.87
2023-02-19T23:31:45.116Z,92.35
2023-02-19T23:34:11.691Z,92.57
2023-02-19T23:36:46.757Z,93.16
2023-02-19T23:39:15.735Z,92.69
2023-02-19T23:41:53.885Z,93.09
2023-02-19T23:44:21.511Z,93.27
2023-02-19T23:46:48.420Z,93.38
2023-02-19T23:49:15.084Z,93.28
2023-02-19T23:51:41.596Z,93.31
2023-02-19T23:54:08.750Z,93.30
2023-02-19T23:56:35.513Z,93.52
2023-02-19T23:59:02.144Z,93.81
